Time;durP1;ratioP1;P1;durP2;ratioP2;P2;SDS_P1;SDS_P2;PMS_P1;PMS_P2;Temp;Humidity;BMP_temperature;BMP_pressure;BME280_temperature;BME280_humidity;BME280_pressure;Samples;Min_cycle;Max_cycle;Signal;HPM_P1;HPM_P2
2023/05/12 00:00:47;;;;;;;8.70;5.22;;;;;;;13.93;55.28;99741.66;5112369;28;20024;-80
2023/05/12 00:03:12;;;;;;;9.07;4.97;;;;;;;13.79;55.39;99723.31;5112106;28;20028;-80
2023/05/12 00:05:38;;;;;;;9.10;5.38;;;;;;;13.97;55.20;99762.31;5112300;28;20532;-80
2023/05/12 00:08:03;;;;;;;7.72;5.45;;;;;;;13.87;55.61;99749.88;5112208;28;20425;-80
2023/05/12 00:10:29;;;;;;;7.45;5.80;;;;;;;13.95;55.54;99758.13;5111807;28;20023;-80
2023/05/12 00:12:54;;;;;;;9.27;4.90;;;;;;;13.80;55.51;99752.00;5112043;28;20028;-80
2023/05/12 00:15:20;;;;;;;8.77;5.95;;;;;;;13.69;55.47;99729.09;5112024;28;20024;-80
2023/05/12 00:17:46;;;;;;;8.63;5.00;;;;;;;13.58;55.64;99728.00;5112142;28;20024;-80
2023/05/12 00:20:11;;;;;;;8.50;5.45;;;;;;;13.71;55.66;99763.84;5111826;28;20123;-80
2023/05/12 00:22:38;;;;;;;6.10;4.85;;;;;;;13.63;55.59;99731.19;5111888;28;20028;-80
2023/05/12 00:25:04;;;;;;;9.73;5.47;;;;;;;13.56;55.78;99708.94;5111988;28;20080;-80
2023/05/12 00:27:30;;;;;;;10.38;5.90;;;;;;;13.59;55.80;99722.69;5111688;28;20412;-80
2023/05/12 00:29:57;;;;;;;6.32;5.25;;;;;;;13.63;55.68;99720.72;5112101;28;20027;-80
2023/05/12 00:32:23;;;;;;;9.70;5.13;;;;;;;13.64;55.58;99736.34;5111944;28;20378;-80
2023/05/12 00:34:49;;;;;;;7.80;5.15;;;;;;;13.53;55.67;99716.97;5111761;28;20123;-80
2023/05/12 00:37:15;;;;;;;8.00;5.38;;;;;;;13.71;55.40;99742.06;5111867;28;20107;-79
2023/05/12 00:39:40;;;;;;;8.95;4.80;;;;;;;13.53;55.40;99722.22;5111784;28;20114;-80
2023/05/12 00:42:06;;;;;;;6.97;5.10;;;;;;;13.77;55.49;99753.94;5111759;28;20103;-80
2023/05/12 00:44:31;;;;;;;8.18;5.18;;;;;;;13.68;55.46;99744.84;5112053;28;20062;-80
2023/05/12 00:46:57;;;;;;;9.63;5.00;;;;;;;13.66;55.67;99746.75;5111877;28;20016;-80
2023/05/12 00:49:25;;;;;;;11.82;5.32;;;;;;;13.64;55.69;99761.66;5111723;28;20348;-80
2023/05/12 00:51:53;;;;;;;7.43;5.55;;;;;;;13.61;55.90;99749.63;5111912;28;20197;-80
2023/05/12 00:54:19;;;;;;;7.38;5.43;;;;;;;13.45;55.83;99728.72;5111537;28;20062;-80
2023/05/12 00:56:44;;;;;;;9.23;5.10;;;;;;;13.45;56.14;99730.50;5111624;28;20452;-80
2023/05/12 00:59:10;;;;;;;7.10;4.80;;;;;;;13.42;56.06;99723.66;5111766;28;20027;-80
2023/05/12 01:01:36;;;;;;;8.55;5.50;;;;;;;13.45;56.26;99743.56;5111573;28;20058;-80
2023/05/12 01:04:02;;;;;;;12.07;5.13;;;;;;;13.42;56.28;99730.66;5111678;28;20027;-80
2023/05/12 01:06:54;;;;;;;6.20;4.63;;;;;;;13.53;56.14;99764.91;5113939;28;20027;-80
2023/05/12 01:09:19;;;;;;;6.55;5.05;;;;;;;13.40;56.54;99754.31;5031909;28;20037;-80
2023/05/12 01:11:44;;;;;;;8.30;4.90;;;;;;;13.20;56.60;99734.47;5032096;28;20037;-80
2023/05/12 01:14:10;;;;;;;7.82;4.78;;;;;;;13.39;56.43;99767.44;5032380;28;20168;-80
2023/05/12 01:16:41;;;;;;;9.18;5.60;;;;;;;13.46;56.49;99761.78;5031887;28;20059;-80
2023/05/12 01:19:18;;;;;;;8.75;5.00;;;;;;;13.43;56.57;99761.97;5032030;28;20117;-80
2023/05/12 01:21:43;;;;;;;8.05;5.05;;;;;;;13.45;56.71;99765.34;5031941;28;20108;-80
2023/05/12 01:24:10;;;;;;;7.65;5.10;;;;;;;13.28;56.80;99741.06;5032054;28;20116;-80
2023/05/12 01:26:36;;;;;;;7.45;5.32;;;;;;;13.11;56.83;99727.13;5031633;28;20033;-80
2023/05/12 01:29:03;;;;;;;9.30;5.40;;;;;;;13.36;56.70;99765.88;5031907;28;20148;-80
2023/05/12 01:31:29;;;;;;;7.10;5.30;;;;;;;13.25;56.82;99755.16;5031707;28;20112;-79
2023/05/12 01:33:55;;;;;;;9.25;5.53;;;;;;;13.14;57.02;99737.41;5031768;28;20180;-80
2023/05/12 01:36:20;;;;;;;7.43;4.90;;;;;;;13.16;57.23;99756.47;5031243;28;20420;-79
2023/05/12 01:38:45;;;;;;;8.30;4.80;;;;;;;13.27;57.28;99775.97;5031656;28;20052;-80
2023/05/12 01:41:11;;;;;;;5.68;4.80;;;;;;;13.04;57.46;99743.25;5031603;28;20029;-80
2023/05/12 01:43:36;;;;;;;9.90;5.38;;;;;;;12.99;57.15;99746.94;5031776;28;20045;-80
2023/05/12 01:46:01;;;;;;;9.85;5.13;;;;;;;12.92;57.79;99745.59;5065435;28;20475;-80
2023/05/12 01:48:27;;;;;;;9.27;5.68;;;;;;;13.04;57.82;99782.47;5114369;28;20023;-80
2023/05/12 01:50:52;;;;;;;6.88;5.25;;;;;;;12.91;58.08;99754.38;5114355;28;20028;-80
2023/05/12 01:53:17;;;;;;;9.23;6.00;;;;;;;12.88;57.94;99754.53;5114429;28;20019;-80
2023/05/12 01:55:42;;;;;;;6.03;5.13;;;;;;;12.89;58.13;99771.91;5114548;28;20037;-80
2023/05/12 01:58:08;;;;;;;6.78;4.97;;;;;;;12.92;58.21;99778.72;5114346;28;20102;-80
2023/05/12 02:00:33;;;;;;;8.07;5.70;;;;;;;12.83;58.05;99760.94;5113905;28;20020;-80
2023/05/12 02:02:58;;;;;;;8.07;5.03;;;;;;;12.73;58.49;99764.06;5114307;28;20047;-80
2023/05/12 02:05:24;;;;;;;6.30;5.03;;;;;;;12.81;58.57;99789.78;5113833;28;20449;-80
2023/05/12 02:07:49;;;;;;;8.88;5.20;;;;;;;12.58;58.55;99736.13;5114274;28;20430;-80
2023/05/12 02:10:15;;;;;;;9.52;5.75;;;;;;;12.74;58.36;99772.75;5114230;28;20387;-80
2023/05/12 02:12:40;;;;;;;10.65;5.85;;;;;;;12.67;58.69;99771.38;5113888;28;20031;-79
2023/05/12 02:15:06;;;;;;;9.68;5.72;;;;;;;12.65;59.02;99781.06;5114039;28;20059;-80
2023/05/12 02:17:31;;;;;;;9.85;5.63;;;;;;;12.42;58.94;99743.91;5113409;28;20016;-79
2023/05/12 02:19:56;;;;;;;7.60;5.13;;;;;;;12.43;59.21;99749.97;5113800;28;20111;-80
2023/05/12 02:22:22;;;;;;;6.72;5.10;;;;;;;12.65;59.38;99781.06;5113473;28;20447;-79
2023/05/12 02:24:47;;;;;;;10.05;5.75;;;;;;;12.49;59.48;99773.19;5114145;28;20157;-79
2023/05/12 02:27:12;;;;;;;7.55;5.47;;;;;;;12.48;59.56;99774.13;5114095;28;20020;-80
2023/05/12 02:29:38;;;;;;;9.30;4.88;;;;;;;12.42;59.58;99772.66;5113518;28;20032;-80
2023/05/12 02:32:04;;;;;;;7.40;5.57;;;;;;;12.26;59.75;99757.84;5113678;28;20020;-80
2023/05/12 02:34:29;;;;;;;10.57;5.68;;;;;;;12.47;59.66;99790.69;5113175;28;20130;-80
2023/05/12 02:36:55;;;;;;;6.20;5.03;;;;;;;12.48;59.81;99789.78;5113559;28;20103;-80
2023/05/12 02:39:20;;;;;;;10.50;5.13;;;;;;;12.37;59.84;99787.72;5113634;28;20110;-79
2023/05/12 02:41:46;;;;;;;9.25;5.88;;;;;;;12.28;59.95;99763.88;5113601;28;20103;-80
2023/05/12 02:44:11;;;;;;;9.35;5.28;;;;;;;12.13;59.89;99757.66;5113453;28;20035;-79
2023/05/12 02:46:37;;;;;;;6.82;5.43;;;;;;;12.10;60.03;99765.66;5113365;28;20020;-80
2023/05/12 02:49:03;;;;;;;8.95;5.70;;;;;;;12.11;60.24;99762.13;5113222;28;20261;-79
2023/05/12 02:51:29;;;;;;;7.25;5.53;;;;;;;12.19;60.13;99765.19;5113002;28;20023;-80
2023/05/12 02:53:54;;;;;;;10.40;5.82;;;;;;;12.12;60.34;99774.25;5113329;28;20031;-80
2023/05/12 02:56:21;;;;;;;11.68;6.30;;;;;;;12.24;60.36;99797.97;5113292;28;20036;-80
2023/05/12 02:58:46;;;;;;;8.63;5.35;;;;;;;12.17;60.52;99791.34;5113177;28;20043;-80
2023/05/12 03:01:12;;;;;;;8.43;5.88;;;;;;;11.92;60.90;99767.41;5113051;28;20027;-80
2023/05/12 03:03:37;;;;;;;13.48;5.40;;;;;;;11.85;60.81;99769.50;5113159;28;20041;-79
2023/05/12 03:06:03;;;;;;;9.02;5.72;;;;;;;12.13;60.83;99805.47;5112921;28;20019;-80
2023/05/12 03:08:28;;;;;;;8.10;5.43;;;;;;;11.86;60.74;99763.34;5112945;28;20062;-80
2023/05/12 03:10:54;;;;;;;8.50;5.47;;;;;;;12.04;61.19;99799.88;5112947;28;20078;-79
2023/05/12 03:13:19;;;;;;;9.45;5.35;;;;;;;11.93;61.43;99792.63;5112975;28;20067;-79
2023/05/12 03:15:44;;;;;;;8.25;5.55;;;;;;;11.91;61.59;99782.22;5112564;28;20110;-80
2023/05/12 03:18:10;;;;;;;7.60;5.40;;;;;;;12.00;61.37;99801.81;5112794;28;20019;-79
2023/05/12 03:20:35;;;;;;;8.57;5.60;;;;;;;11.83;61.43;99792.19;5112507;28;20080;-79
2023/05/12 03:23:01;;;;;;;8.10;5.22;;;;;;;11.77;61.69;99771.63;5113138;28;20486;-80
2023/05/12 03:25:26;;;;;;;11.18;5.78;;;;;;;11.64;61.90;99773.97;5112577;28;20487;-80
2023/05/12 03:27:51;;;;;;;7.50;5.72;;;;;;;11.75;61.95;99794.31;5112086;28;20027;-79
2023/05/12 03:30:17;;;;;;;7.82;5.65;;;;;;;11.71;62.22;99793.66;5112933;28;20479;-80
2023/05/12 03:32:43;;;;;;;8.98;5.68;;;;;;;11.51;62.41;99772.06;5112321;28;20106;-80
2023/05/12 03:35:08;;;;;;;7.70;5.90;;;;;;;11.79;62.13;99808.91;5112264;28;20059;-79
2023/05/12 03:37:34;;;;;;;7.18;4.95;;;;;;;11.58;62.20;99774.25;5112395;28;20413;-80
2023/05/12 03:39:59;;;;;;;8.07;5.82;;;;;;;11.49;62.45;99772.09;5112498;28;20031;-80
2023/05/12 03:42:24;;;;;;;10.02;6.18;;;;;;;11.56;62.46;99776.13;5112330;28;20379;-79
2023/05/12 03:44:50;;;;;;;12.05;6.10;;;;;;;11.51;62.49;99774.66;5112472;28;20027;-80
2023/05/12 03:47:15;;;;;;;9.30;6.15;;;;;;;11.76;62.41;99811.69;5112545;28;20059;-80
2023/05/12 03:49:41;;;;;;;8.00;5.32;;;;;;;11.51;62.56;99780.72;5112012;28;20055;-79
2023/05/12 03:52:06;;;;;;;8.88;5.68;;;;;;;11.57;62.52;99775.19;5112134;28;20024;-80
2023/05/12 03:54:31;;;;;;;9.88;5.60;;;;;;;11.57;62.50;99783.00;5112183;28;20027;-80
2023/05/12 03:56:57;;;;;;;13.30;5.95;;;;;;;11.61;62.81;99791.53;5112340;28;20098;-80
2023/05/12 03:59:22;;;;;;;8.80;5.63;;;;;;;11.74;62.43;99780.41;5112014;28;20036;-80
2023/05/12 04:01:47;;;;;;;7.30;5.50;;;;;;;11.87;62.30;99780.69;5111915;28;20023;-80
2023/05/12 04:04:13;;;;;;;7.30;5.30;;;;;;;12.10;62.07;99820.50;5112014;28;20020;-80
2023/05/12 04:06:38;;;;;;;8.70;5.50;;;;;;;12.31;61.80;99815.94;5111839;28;20027;-81
2023/05/12 04:09:03;;;;;;;7.80;5.70;;;;;;;12.35;60.96;99776.53;5112239;28;20041;-80
2023/05/12 04:11:29;;;;;;;12.25;5.90;;;;;;;12.91;59.40;99771.81;5112081;28;20069;-81
2023/05/12 04:13:54;;;;;;;7.18;5.32;;;;;;;14.00;57.34;99769.19;5112667;28;20061;-81
2023/05/12 04:16:20;;;;;;;9.38;6.15;;;;;;;14.94;55.15;99799.28;5112234;28;20043;-81
2023/05/12 04:18:45;;;;;;;8.57;5.47;;;;;;;15.48;53.95;99809.03;5111835;28;20020;-81
2023/05/12 04:21:10;;;;;;;8.88;5.63;;;;;;;15.65;53.54;99792.22;5111922;28;20038;-81
2023/05/12 04:23:36;;;;;;;8.80;5.57;;;;;;;15.71;53.32;99818.91;5111973;28;20031;-81
2023/05/12 04:26:04;;;;;;;15.70;6.15;;;;;;;15.00;54.31;99787.59;5112121;28;20051;-81
2023/05/12 04:28:30;;;;;;;7.60;5.43;;;;;;;15.00;55.07;99826.06;5111904;28;20032;-81
2023/05/12 04:30:55;;;;;;;9.35;5.70;;;;;;;14.99;54.81;99793.75;5111911;28;20320;-81
2023/05/12 04:33:20;;;;;;;8.48;5.28;;;;;;;15.60;53.57;99800.34;5111881;28;20359;-81
2023/05/12 04:35:46;;;;;;;7.60;5.45;;;;;;;16.53;52.03;99803.81;5111607;28;20479;-81
2023/05/12 04:38:12;;;;;;;9.85;5.65;;;;;;;17.14;50.12;99814.47;5112075;28;20024;-81
2023/05/12 04:40:37;;;;;;;9.85;5.93;;;;;;;17.28;50.01;99830.16;5114730;28;20034;-80
2023/05/12 04:43:02;;;;;;;9.50;6.45;;;;;;;17.57;49.36;99835.09;5115835;28;20020;-80
2023/05/12 04:45:28;;;;;;;7.78;5.88;;;;;;;17.13;50.17;99837.34;5115580;28;20069;-80
2023/05/12 04:47:53;;;;;;;9.32;5.63;;;;;;;16.83;50.74;99842.94;5115398;28;20474;-81
2023/05/12 04:50:19;;;;;;;8.02;5.32;;;;;;;16.34;51.55;99832.28;5115847;28;20080;-81
2023/05/12 04:52:44;;;;;;;8.10;5.38;;;;;;;16.17;52.10;99838.66;5115523;28;20016;-81
2023/05/12 04:55:09;;;;;;;6.78;5.35;;;;;;;16.36;51.87;99826.00;5115667;28;20035;-81
2023/05/12 04:57:35;;;;;;;8.90;5.82;;;;;;;15.99;52.20;99848.63;5115414;28;20016;-81
2023/05/12 05:00:03;;;;;;;10.23;5.68;;;;;;;16.18;52.45;99832.47;5115494;28;20031;-81
2023/05/12 05:02:29;;;;;;;6.57;5.50;;;;;;;17.08;50.40;99828.09;5115342;28;20378;-81
2023/05/12 05:04:54;;;;;;;10.18;5.75;;;;;;;17.91;48.78;99855.44;5115192;28;20033;-81
2023/05/12 05:07:19;;;;;;;8.50;5.78;;;;;;;17.87;49.09;99835.53;5115553;28;20032;-81
2023/05/12 05:09:45;;;;;;;11.30;5.72;;;;;;;17.61;49.16;99837.41;5115383;28;20058;-81
2023/05/12 05:12:10;;;;;;;7.80;5.63;;;;;;;17.54;49.91;99840.59;5115339;28;20054;-81
2023/05/12 05:14:35;;;;;;;9.98;6.55;;;;;;;17.56;49.87;99823.72;5114962;28;20024;-81
2023/05/12 05:17:01;;;;;;;7.75;5.70;;;;;;;17.81;49.24;99830.69;5115056;28;20110;-81
2023/05/12 05:19:26;;;;;;;7.85;5.28;;;;;;;18.45;49.09;99856.66;5114946;28;20055;-81
2023/05/12 05:21:52;;;;;;;8.02;5.88;;;;;;;19.03;47.69;99820.53;5114762;28;20031;-81
2023/05/12 05:24:17;;;;;;;8.45;5.30;;;;;;;20.05;45.56;99855.47;5115071;28;20103;-81
2023/05/12 05:26:43;;;;;;;8.15;5.50;;;;;;;20.32;45.04;99849.72;5114793;28;20028;-81
2023/05/12 05:29:08;;;;;;;6.40;4.85;;;;;;;20.08;45.11;99842.84;5114925;28;20429;-80
2023/05/12 05:31:34;;;;;;;9.85;6.07;;;;;;;19.03;46.52;99846.91;5114659;28;20024;-81
2023/05/12 05:33:59;;;;;;;8.00;6.22;;;;;;;17.90;48.27;99824.72;5115191;28;20479;-81
2023/05/12 05:36:27;;;;;;;7.45;5.35;;;;;;;17.86;49.33;99859.34;5115014;28;20069;-81
2023/05/12 05:38:53;;;;;;;10.02;5.97;;;;;;;17.90;49.35;99843.19;5114555;28;20024;-81
2023/05/12 05:41:18;;;;;;;9.13;6.10;;;;;;;19.00;47.66;99827.84;5114616;28;20038;-81
2023/05/12 05:43:43;;;;;;;10.43;5.75;;;;;;;20.59;45.53;99834.16;5114356;28;20141;-81
2023/05/12 05:46:09;;;;;;;8.55;5.80;;;;;;;20.60;44.40;99843.78;5114432;28;20080;-81
2023/05/12 05:48:35;;;;;;;7.28;5.32;;;;;;;20.65;44.46;99827.53;5114248;28;20028;-81
2023/05/12 05:51:01;;;;;;;7.40;6.28;;;;;;;20.56;45.04;99849.47;5113966;28;20036;-81
2023/05/12 05:53:27;;;;;;;6.72;5.35;;;;;;;20.28;45.96;99838.53;5114543;28;20031;-81
2023/05/12 05:55:52;;;;;;;8.43;5.82;;;;;;;20.41;45.73;99857.72;5114173;28;20536;-81
2023/05/12 05:58:17;;;;;;;6.38;5.53;;;;;;;20.73;45.10;99846.25;5114378;28;20360;-81
2023/05/12 06:00:43;;;;;;;9.13;6.18;;;;;;;21.11;44.56;99836.75;5114567;28;20050;-81
2023/05/12 06:03:08;;;;;;;8.73;5.45;;;;;;;21.92;43.89;99842.81;5114888;28;20028;-81
2023/05/12 06:05:34;;;;;;;8.40;5.70;;;;;;;22.47;42.96;99869.59;5114534;28;20035;-81
2023/05/12 06:08:00;;;;;;;6.15;5.53;;;;;;;22.21;43.29;99839.34;5114232;28;20035;-81
2023/05/12 06:10:25;;;;;;;9.10;5.20;;;;;;;22.73;43.02;99855.72;5114099;28;20036;-81
2023/05/12 06:12:50;;;;;;;7.70;5.40;;;;;;;22.87;42.22;99866.69;5113854;28;20107;-81
2023/05/12 06:15:17;;;;;;;7.10;5.57;;;;;;;22.80;41.36;99836.41;5113990;28;20455;-82
2023/05/12 06:17:42;;;;;;;9.82;5.78;;;;;;;23.65;41.15;99871.72;5113821;28;20042;-82
2023/05/12 06:20:08;;;;;;;7.10;5.32;;;;;;;24.26;39.98;99835.50;5114202;28;20031;-82
2023/05/12 06:22:34;;;;;;;9.43;5.43;;;;;;;25.43;38.98;99859.84;5113671;28;20031;-82
2023/05/12 06:25:00;;;;;;;8.23;5.40;;;;;;;26.07;38.54;99852.97;5113898;28;20110;-82
2023/05/12 06:27:25;;;;;;;10.02;6.15;;;;;;;26.97;37.35;99873.41;5113798;28;20034;-82
2023/05/12 06:29:51;;;;;;;6.60;5.20;;;;;;;27.35;36.31;99834.38;5113514;28;20035;-81
2023/05/12 06:32:16;;;;;;;6.22;5.63;;;;;;;27.47;36.76;99858.84;5113633;28;20084;-81
2023/05/12 06:34:41;;;;;;;6.50;5.75;;;;;;;27.72;36.15;99840.81;5113323;28;20047;-82
2023/05/12 06:37:07;;;;;;;6.45;5.85;;;;;;;27.35;36.19;99829.03;5113787;28;20375;-82
2023/05/12 06:39:32;;;;;;;5.15;4.72;;;;;;;28.03;35.45;99873.75;5113813;28;20047;-82
2023/05/12 06:41:57;;;;;;;8.68;5.88;;;;;;;27.96;35.52;99842.53;5113382;28;20015;-82
2023/05/12 06:44:23;;;;;;;7.38;5.28;;;;;;;28.85;34.54;99863.13;5113573;28;20475;-80
2023/05/12 06:46:48;;;;;;;6.30;4.97;;;;;;;30.21;34.01;99853.63;5112887;28;20424;-80
2023/05/12 06:49:13;;;;;;;7.07;5.05;;;;;;;32.35;32.36;99856.22;5095150;28;20028;-80
2023/05/12 06:51:39;;;;;;;6.05;5.45;;;;;;;33.85;31.02;99860.56;5113166;28;20032;-80
2023/05/12 06:54:04;;;;;;;9.48;5.65;;;;;;;34.25;30.37;99871.91;5113374;28;20023;-80
2023/05/12 06:56:30;;;;;;;5.93;5.38;;;;;;;33.32;30.37;99852.72;5113270;28;20020;-80
2023/05/12 06:58:59;;;;;;;12.50;5.53;;;;;;;33.21;31.06;99851.53;5112929;28;20360;-80
2023/05/12 07:01:29;;;;;;;7.15;5.38;;;;;;;32.44;31.00;99871.16;5112914;28;20391;-80
2023/05/12 07:03:54;;;;;;;7.78;5.10;;;;;;;32.15;31.37;99840.91;5111986;28;20367;-80
2023/05/12 07:06:20;;;;;;;9.30;5.20;;;;;;;33.36;30.37;99862.03;5113087;28;20109;-80
2023/05/12 07:08:46;;;;;;;8.77;5.45;;;;;;;33.06;30.08;99867.16;5112718;28;20467;-81
2023/05/12 07:11:11;;;;;;;5.22;4.72;;;;;;;32.80;30.17;99862.63;5112851;28;20027;-81
2023/05/12 07:13:37;;;;;;;6.50;4.90;;;;;;;31.50;30.75;99843.25;5110325;28;20408;-81
2023/05/12 07:16:04;;;;;;;8.30;4.85;;;;;;;30.94;31.83;99847.97;5103987;28;20027;-80
2023/05/12 07:18:29;;;;;;;8.85;5.15;;;;;;;31.74;31.71;99847.25;5085194;28;20028;-80
2023/05/12 07:20:55;;;;;;;5.40;4.63;;;;;;;33.09;30.48;99838.91;5096923;28;20030;-80
2023/05/12 07:23:20;;;;;;;7.35;5.30;;;;;;;33.34;29.99;99852.53;5092021;28;20502;-80
2023/05/12 07:25:46;;;;;;;8.25;5.30;;;;;;;32.77;30.70;99850.38;5092570;28;20020;-80
2023/05/12 07:28:11;;;;;;;9.25;5.05;;;;;;;33.01;30.22;99862.38;5112471;28;20103;-80
2023/05/12 07:30:38;;;;;;;8.07;5.00;;;;;;;33.37;30.18;99838.56;5112205;28;20049;-80
2023/05/12 07:33:04;;;;;;;8.40;5.00;;;;;;;34.10;30.03;99832.75;5106202;28;20024;-80
2023/05/12 07:35:29;;;;;;;7.57;4.88;;;;;;;34.58;29.01;99848.38;5105948;28;20096;-80
2023/05/12 07:37:55;;;;;;;5.82;5.20;;;;;;;34.92;29.00;99866.72;5105715;28;20031;-81
2023/05/12 07:40:20;;;;;;;7.45;4.93;;;;;;;35.79;29.04;99855.66;5100751;28;20502;-80
2023/05/12 07:42:45;;;;;;;6.30;4.68;;;;;;;34.75;29.30;99857.56;5094077;28;20031;-80
2023/05/12 07:45:11;;;;;;;7.97;4.70;;;;;;;33.26;30.14;99876.00;5073792;28;20036;-80
2023/05/12 07:47:36;;;;;;;5.97;4.50;;;;;;;32.88;30.11;99843.53;5092169;28;20028;-80
2023/05/12 07:50:01;;;;;;;6.53;4.80;;;;;;;33.69;29.98;99842.16;5091849;28;20032;-80
2023/05/12 07:52:27;;;;;;;8.55;4.68;;;;;;;34.72;29.89;99858.84;5092095;28;20038;-80
2023/05/12 07:54:56;;;;;;;6.45;4.50;;;;;;;35.05;29.28;99844.13;5091833;28;20120;-80
2023/05/12 07:57:22;;;;;;;4.38;3.95;;;;;;;35.24;28.63;99820.56;5091946;28;20054;-81
2023/05/12 07:59:48;;;;;;;7.95;4.72;;;;;;;35.59;28.58;99855.13;5091771;28;20067;-80
2023/05/12 08:02:13;;;;;;;7.60;4.07;;;;;;;35.49;28.43;99852.97;5092013;28;20520;-80
2023/05/12 08:04:39;;;;;;;6.53;4.13;;;;;;;34.13;28.57;99860.16;5091790;28;20145;-79
2023/05/12 08:07:04;;;;;;;4.97;4.47;;;;;;;33.07;29.98;99851.78;5091885;28;20016;-80
2023/05/12 08:09:29;;;;;;;7.38;4.35;;;;;;;32.98;30.25;99846.63;5091773;28;20117;-80
2023/05/12 08:11:55;;;;;;;7.88;3.90;;;;;;;32.37;30.50;99873.84;5091654;28;20111;-80
2023/05/12 08:14:21;;;;;;;5.45;4.50;;;;;;;32.32;30.82;99862.88;5092594;28;20064;-80
2023/05/12 08:16:46;;;;;;;4.93;4.05;;;;;;;31.71;31.32;99844.94;5095899;28;20095;-79
2023/05/12 08:19:12;;;;;;;5.72;4.13;;;;;;;30.69;32.54;99852.94;5077857;28;20107;-79
2023/05/12 08:21:38;;;;;;;6.57;4.65;;;;;;;29.38;33.04;99840.75;5095917;28;20020;-79
2023/05/12 08:24:03;;;;;;;6.50;4.10;;;;;;;29.20;34.08;99873.31;5095928;28;20036;-79
2023/05/12 08:26:28;;;;;;;8.02;4.63;;;;;;;28.74;34.61;99844.84;5095736;28;20024;-81
2023/05/12 08:28:54;;;;;;;5.53;4.07;;;;;;;26.93;35.93;99856.91;5095645;28;20024;-81
2023/05/12 08:31:19;;;;;;;5.80;4.55;;;;;;;25.56;38.37;99860.22;5095800;28;20032;-81
2023/05/12 08:33:45;;;;;;;7.80;4.65;;;;;;;24.96;39.35;99838.13;5095526;28;20064;-81
2023/05/12 08:36:10;;;;;;;5.20;4.32;;;;;;;24.03;40.05;99832.50;5095363;28;20055;-81
2023/05/12 08:38:36;;;;;;;5.85;4.28;;;;;;;23.61;40.70;99846.38;5095528;28;20028;-81
2023/05/12 08:41:11;;;;;;;5.75;4.53;;;;;;;23.27;41.62;99875.41;5095120;28;20475;-81
2023/05/12 08:43:42;;;;;;;8.60;4.88;;;;;;;22.60;41.67;99826.81;5095289;28;20020;-81
2023/05/12 08:46:08;;;;;;;5.53;4.35;;;;;;;22.52;42.24;99866.53;5095431;28;20035;-81
2023/05/12 08:48:34;;;;;;;4.60;4.20;;;;;;;22.44;43.25;99863.75;5095245;28;20024;-80
2023/05/12 08:51:01;;;;;;;12.45;4.50;;;;;;;22.13;42.74;99880.66;5095069;28;20043;-81
2023/05/12 08:53:28;;;;;;;5.22;4.25;;;;;;;21.87;43.10;99867.09;5095232;28;20024;-81
2023/05/12 08:55:55;;;;;;;9.43;4.90;;;;;;;21.99;43.56;99873.09;5094824;28;20043;-81
2023/05/12 08:58:21;;;;;;;7.30;4.57;;;;;;;21.81;43.49;99872.94;5095302;28;20096;-81
2023/05/12 09:00:46;;;;;;;5.85;4.15;;;;;;;21.56;44.37;99844.31;5094910;28;20110;-81
2023/05/12 09:03:13;;;;;;;7.82;4.18;;;;;;;21.68;44.07;99859.13;5095119;28;20024;-81
2023/05/12 09:05:39;;;;;;;6.93;4.85;;;;;;;21.51;44.15;99826.16;5095048;28;20035;-81
2023/05/12 09:08:05;;;;;;;5.00;4.45;;;;;;;21.31;44.92;99833.19;5094687;28;20020;-81
2023/05/12 09:10:31;;;;;;;6.38;4.38;;;;;;;21.26;44.60;99876.97;5076678;28;20055;-81
2023/05/12 09:13:10;;;;;;;5.47;4.30;;;;;;;21.17;45.23;99862.72;5094949;28;20028;-81
2023/05/12 09:15:42;;;;;;;8.45;5.15;;;;;;;21.03;45.34;99834.81;5094933;28;20035;-81
2023/05/12 09:18:07;;;;;;;4.75;4.20;;;;;;;21.16;44.55;99848.66;5094743;28;20028;-81
2023/05/12 09:20:33;;;;;;;7.47;4.20;;;;;;;21.28;45.10;99852.03;5094501;28;20424;-81
2023/05/12 09:23:20;;;;;;;6.75;4.63;;;;;;;21.28;44.24;99841.44;5094305;28;20020;-81
2023/05/12 09:25:57;;;;;;;6.07;4.13;;;;;;;21.34;44.75;99864.75;5093475;28;20089;-81
2023/05/12 09:28:22;;;;;;;6.18;4.55;;;;;;;21.30;45.35;99859.84;5094583;28;20028;-81
2023/05/12 09:30:47;;;;;;;7.43;4.32;;;;;;;21.34;45.34;99835.63;5094141;28;20036;-81
2023/05/12 09:33:13;;;;;;;5.85;4.85;;;;;;;21.63;45.09;99864.00;5094415;28;20099;-81
2023/05/12 09:35:39;;;;;;;5.55;4.10;;;;;;;21.36;45.44;99817.78;5094235;28;20040;-81
2023/05/12 09:38:09;;;;;;;5.95;4.30;;;;;;;21.63;46.02;99846.28;5094018;28;20107;-80
2023/05/12 09:40:34;;;;;;;4.72;4.25;;;;;;;21.35;44.93;99821.38;5094187;28;20031;-81
2023/05/12 09:42:59;;;;;;;5.75;4.38;;;;;;;21.17;44.79;99841.53;5094017;28;20028;-81
2023/05/12 09:45:25;;;;;;;6.70;3.80;;;;;;;21.10;45.75;99830.63;5094246;28;20437;-81
2023/05/12 09:47:50;;;;;;;6.68;4.65;;;;;;;21.41;45.51;99850.00;5075477;28;20404;-81
2023/05/12 09:50:17;;;;;;;4.90;3.92;;;;;;;21.29;44.82;99815.78;5094320;28;20028;-81
2023/05/12 09:52:43;;;;;;;4.32;3.63;;;;;;;21.44;43.00;99840.94;5094320;28;20027;-81
2023/05/12 09:55:10;;;;;;;5.43;3.60;;;;;;;21.40;42.96;99818.31;5093923;28;20032;-81
2023/05/12 09:57:43;;;;;;;4.13;3.33;;;;;;;21.66;43.81;99853.13;5094022;28;20110;-81
2023/05/12 10:00:13;;;;;;;6.95;3.67;;;;;;;21.57;43.75;99819.47;5093549;28;20123;-81
2023/05/12 10:02:43;;;;;;;7.30;3.97;;;;;;;21.84;43.91;99853.28;5093689;28;20032;-81
2023/05/12 10:05:20;;;;;;;6.80;3.75;;;;;;;21.54;44.98;99823.25;5093744;28;20028;-81
2023/05/12 10:07:51;;;;;;;4.85;3.95;;;;;;;21.60;44.75;99830.63;5075847;28;20081;-81
2023/05/12 10:10:25;;;;;;;6.50;3.90;;;;;;;21.72;44.29;99847.25;5093831;28;20028;-81
2023/05/12 10:12:50;;;;;;;4.32;3.60;;;;;;;21.52;44.34;99827.84;5093332;28;20035;-81
2023/05/12 10:15:16;;;;;;;7.07;4.15;;;;;;;21.41;44.89;99823.50;5093769;28;20028;-80
2023/05/12 10:17:43;;;;;;;4.22;3.63;;;;;;;21.61;45.65;99842.91;5093722;28;20024;-80
2023/05/12 10:20:09;;;;;;;7.72;3.85;;;;;;;21.61;45.38;99831.47;5096322;28;20475;-80
2023/05/12 10:22:37;;;;;;;9.60;5.05;;;;;;;21.47;44.94;99813.31;5104627;28;20145;-81
2023/05/12 10:25:04;;;;;;;12.40;4.80;;;;;;;21.38;44.74;99830.88;5113646;28;20034;-80
2023/05/12 10:27:31;;;;;;;4.40;2.88;;;;;;;21.57;43.31;99840.66;5113632;28;20493;-81
2023/05/12 10:29:59;;;;;;;4.85;3.40;;;;;;;21.47;41.88;99829.22;5113705;28;20153;-80
2023/05/12 10:32:25;;;;;;;6.38;3.22;;;;;;;21.44;42.76;99830.31;5113642;28;20379;-81
2023/05/12 10:34:51;;;;;;;5.40;3.50;;;;;;;21.45;43.28;99786.13;5113217;28;20754;-81
2023/05/12 10:37:16;;;;;;;3.28;3.00;;;;;;;21.30;41.62;99810.34;5095283;28;20291;-81
2023/05/12 10:39:47;;;;;;;4.68;3.13;;;;;;;21.48;43.20;99831.72;5113422;28;20520;-81
2023/05/12 10:42:16;;;;;;;8.63;3.22;;;;;;;21.34;43.57;99816.22;5113324;28;20100;-81
2023/05/12 10:44:50;;;;;;;6.18;3.60;;;;;;;21.18;41.96;99799.00;5113272;28;20047;-81
2023/05/12 10:47:16;;;;;;;4.22;2.92;;;;;;;21.38;42.04;99830.88;5095107;28;20019;-81
2023/05/12 10:49:42;;;;;;;4.82;3.35;;;;;;;21.33;43.00;99802.16;5113415;28;20142;-81
2023/05/12 10:52:11;;;;;;;5.93;3.17;;;;;;;21.43;43.65;99789.75;5113090;28;20023;-80
2023/05/12 10:54:40;;;;;;;4.80;3.08;;;;;;;21.78;43.11;99816.69;5113057;28;20078;-81
2023/05/12 10:57:12;;;;;;;5.90;3.15;;;;;;;21.34;42.38;99760.59;5113173;28;20063;-81
2023/05/12 10:59:47;;;;;;;5.45;2.83;;;;;;;21.55;41.87;99798.41;5097037;28;20537;-81
2023/05/12 11:02:18;;;;;;;4.72;3.00;;;;;;;21.61;42.35;99807.63;5113082;28;20030;-81
2023/05/12 11:04:52;;;;;;;6.25;3.25;;;;;;;21.87;42.01;99840.59;5107755;28;20032;-81
2023/05/12 11:07:25;;;;;;;6.32;3.33;;;;;;;21.77;42.68;99860.94;5092581;28;20484;-81
2023/05/12 11:09:52;;;;;;;4.30;3.15;;;;;;;21.58;41.02;99829.13;5092734;28;20039;-80
2023/05/12 11:12:18;;;;;;;5.15;3.50;;;;;;;21.80;41.63;99838.63;5092688;28;20353;-81
2023/05/12 11:14:45;;;;;;;5.68;3.10;;;;;;;21.79;41.11;99834.28;5092593;28;20031;-81
2023/05/12 11:17:11;;;;;;;3.70;3.17;;;;;;;21.68;40.92;99812.22;5092295;28;20430;-81
2023/05/12 11:19:38;;;;;;;3.10;2.80;;;;;;;21.76;40.22;99800.94;5092254;28;20032;-81
2023/05/12 11:22:06;;;;;;;3.30;3.00;;;;;;;21.76;41.23;99798.28;5092396;28;20031;-80
2023/05/12 11:24:32;;;;;;;4.05;2.60;;;;;;;21.92;38.90;99834.84;5092488;28;20075;-80
2023/05/12 11:26:57;;;;;;;4.38;2.88;;;;;;;21.71;39.20;99799.69;5092161;28;20047;-80